Lake Katonah, New York
Current Conditions -  °F | °C
As of 12:53 AM on Wednesday 28 Jan 2015 (Local Time) from KDXR Reporting Station
Scattered Clouds Scattered Clouds  
Wind Chill: -2°   Ceiling: Unl
Heat Index: 13°   Visibility: 10mi
Dew Point:   Wind: 13mph
Humidity: 62%   Direction: 310°NW
Pressure: 29.81"   Gusts: 18mph
Location:  41.2685°N, 73.6548°W
Report Text: KDXR 280553Z AUTO 31011G16KT 10SM FEW029 FEW060 SCT120 M11/M17 A2981 RMK AO2 SLP100 T11061167 11083 21106 50010 $
Loading
Personal Weather Stations






























Interactive Weather Map New forecast layout! Learn more

10-Day Weather Forecast

Advertisements
Track Severe Weather on mobile